Time;durP1;ratioP1;P1;durP2;ratioP2;P2;SDS_P1;SDS_P2;PMS_P1;PMS_P2;Temp;Humidity;BMP_temperature;BMP_pressure;BME280_temperature;BME280_humidity;BME280_pressure;Samples;Min_cycle;Max_cycle;Signal;HPM_P1;HPM_P2
2024/04/05 00:02:22;;;;;;;9.55;2.70;;;10.10;99.90;;;8.93;100.00;100391.19;5007444;28;20033;-78
2024/04/05 00:04:48;;;;;;;4.90;2.13;;;10.10;99.90;;;8.96;100.00;100396.28;5013053;28;20035;-78
2024/04/05 00:07:14;;;;;;;6.32;2.33;;;10.20;99.90;;;8.98;100.00;100391.81;5032552;28;20033;-78
2024/04/05 00:09:41;;;;;;;7.63;1.80;;;10.20;99.90;;;9.00;100.00;100395.22;5013114;28;20034;-77
2024/04/05 00:12:06;;;;;;;10.85;2.38;;;10.20;99.90;;;9.02;100.00;100396.00;5014638;28;20036;-78
2024/04/05 00:14:32;;;;;;;6.25;2.17;;;10.30;99.90;;;9.06;100.00;100402.00;5021022;28;20029;-78
2024/04/05 00:17:01;;;;;;;6.75;2.30;;;10.20;99.90;;;9.09;100.00;100397.44;4997203;28;20056;-78
2024/04/05 00:19:26;;;;;;;8.48;2.60;;;10.30;99.90;;;9.12;100.00;100397.31;4997274;28;20029;-78
2024/04/05 00:21:52;;;;;;;5.95;2.03;;;10.30;99.90;;;9.15;100.00;100409.44;4996167;28;20108;-78
2024/04/05 00:24:18;;;;;;;12.18;2.50;;;10.40;99.90;;;9.17;100.00;100405.81;5006625;28;20116;-78
2024/04/05 00:26:44;;;;;;;9.30;2.13;;;10.40;99.90;;;9.21;100.00;100403.91;5011827;28;20120;-78
2024/04/05 00:29:10;;;;;;;8.93;2.50;;;10.40;99.90;;;9.23;100.00;100408.16;5014138;28;20535;-76
2024/04/05 00:31:35;;;;;;;5.00;2.33;;;10.40;99.90;;;9.26;100.00;100411.56;5028919;28;20032;-77
2024/04/05 00:34:04;;;;;;;5.07;2.10;;;10.40;99.90;;;9.27;100.00;100411.50;5029946;28;20403;-78
2024/04/05 00:36:32;;;;;;;4.43;2.40;;;10.50;99.90;;;9.29;100.00;100417.56;4997181;28;20017;-78
2024/04/05 00:38:58;;;;;;;9.13;2.00;;;10.50;99.90;;;9.28;100.00;100405.31;5013440;28;20038;-77
2024/04/05 00:41:23;;;;;;;7.25;1.90;;;10.50;99.90;;;9.23;100.00;100402.06;5011442;28;20112;-78
2024/04/05 00:43:49;;;;;;;7.85;2.08;;;10.40;99.90;;;9.21;100.00;100396.03;5012737;28;20116;-78
2024/04/05 00:46:15;;;;;;;5.00;1.88;;;10.40;99.90;;;9.23;100.00;100407.31;4996663;28;20511;-78
2024/04/05 00:48:41;;;;;;;7.90;1.92;;;10.40;99.90;;;9.23;100.00;100402.91;5011214;28;20047;-78
2024/04/05 00:51:10;;;;;;;8.55;2.10;;;10.40;99.90;;;9.22;100.00;100411.72;5012883;28;20159;-78
2024/04/05 00:53:36;;;;;;;11.10;2.28;;;10.40;99.90;;;9.22;100.00;100410.84;4998002;28;20026;-77
2024/04/05 00:56:03;;;;;;;8.18;1.95;;;10.40;99.90;;;9.20;100.00;100421.44;4997369;28;20041;-78
2024/04/05 00:58:28;;;;;;;10.52;2.17;;;10.40;99.90;;;9.20;100.00;100428.47;5012749;28;21473;-78
2024/04/05 01:00:56;;;;;;;6.00;2.03;;;10.40;99.90;;;9.18;100.00;100438.22;5015781;28;20025;-78
2024/04/05 01:03:24;;;;;;;8.23;2.08;;;10.40;99.90;;;9.17;100.00;100429.47;5013626;28;20119;-77
2024/04/05 01:05:50;;;;;;;6.55;2.28;;;10.40;99.90;;;9.16;100.00;100440.06;4996755;28;20527;-78
2024/04/05 01:08:17;;;;;;;9.55;2.47;;;10.40;99.90;;;9.15;100.00;100439.19;5013964;28;20043;-78
2024/04/05 01:10:43;;;;;;;6.60;2.15;;;10.40;99.90;;;9.15;100.00;100433.91;5011390;28;20029;-77
2024/04/05 01:13:12;;;;;;;6.18;2.08;;;10.40;99.90;;;9.16;100.00;100442.69;4996638;28;20507;-78
2024/04/05 01:15:43;;;;;;;7.00;2.53;;;10.40;99.90;;;9.15;100.00;100444.44;5018642;28;20622;-78
2024/04/05 01:18:11;;;;;;;7.07;2.10;;;10.40;99.90;;;9.17;100.00;100439.97;4997548;28;20033;-77
2024/04/05 01:20:38;;;;;;;9.23;2.42;;;10.40;99.90;;;9.16;100.00;100440.91;5013637;28;20053;-78
2024/04/05 01:23:12;;;;;;;12.65;2.40;;;10.40;99.90;;;9.15;100.00;100435.72;4995875;28;20033;-77
2024/04/05 01:25:39;;;;;;;5.93;2.20;;;10.40;99.90;;;9.15;100.00;100438.34;5006574;28;20407;-77
2024/04/05 01:28:14;;;;;;;5.00;2.10;;;10.40;99.90;;;9.16;100.00;100437.44;5011354;28;20052;-79
2024/04/05 01:30:40;;;;;;;7.85;2.20;;;10.40;99.90;;;9.17;100.00;100442.59;4997573;28;20038;-78
2024/04/05 01:33:06;;;;;;;5.90;2.63;;;10.40;99.90;;;9.19;100.00;100430.25;5012619;28;20025;-79
2024/04/05 01:35:32;;;;;;;10.05;2.63;;;10.40;99.90;;;9.19;100.00;100432.03;5013674;28;20115;-79
2024/04/05 01:37:59;;;;;;;11.88;2.42;;;10.40;99.90;;;9.20;100.00;100437.22;5007118;28;20434;-79
2024/04/05 01:40:26;;;;;;;5.30;2.20;;;10.40;99.90;;;9.20;100.00;100434.59;5012947;28;20022;-79
2024/04/05 01:42:54;;;;;;;7.78;2.63;;;10.40;99.90;;;9.22;100.00;100427.50;5012167;28;20103;-78
2024/04/05 01:45:20;;;;;;;5.43;2.10;;;10.50;99.90;;;9.25;100.00;100431.75;5015688;28;20049;-79
2024/04/05 01:47:47;;;;;;;8.40;2.53;;;10.50;99.90;;;9.29;100.00;100437.69;5016533;28;20029;-79
2024/04/05 01:50:17;;;;;;;9.13;2.53;;;10.50;99.90;;;9.30;100.00;100437.63;5015323;28;20030;-79
2024/04/05 01:52:50;;;;;;;11.65;2.65;;;10.50;99.90;;;9.28;100.00;100431.59;4999301;28;20056;-79
2024/04/05 01:55:16;;;;;;;10.52;2.95;;;10.50;99.90;;;9.32;100.00;100427.06;5020089;28;20108;-78
2024/04/05 01:57:42;;;;;;;8.57;2.45;;;10.50;99.90;;;9.31;100.00;100425.34;5018231;28;20586;-79
2024/04/05 02:00:08;;;;;;;9.27;2.90;;;10.50;99.90;;;9.33;100.00;100423.50;5017956;28;20571;-79
2024/04/05 02:02:39;;;;;;;12.40;2.95;;;10.50;99.90;;;9.35;100.00;100426.91;5019927;28;20624;-79
2024/04/05 02:05:05;;;;;;;17.90;2.65;;;10.60;99.90;;;9.35;100.00;100433.03;5019160;28;20212;-79
2024/04/05 02:07:31;;;;;;;13.40;3.45;;;10.60;99.90;;;9.36;100.00;100429.47;4999918;28;20029;-79
2024/04/05 02:09:57;;;;;;;7.35;2.70;;;10.60;99.90;;;9.41;100.00;100432.72;5001255;28;20030;-79
2024/04/05 02:12:27;;;;;;;10.13;3.00;;;10.60;99.90;;;9.40;100.00;100436.28;5019918;28;20029;-79
2024/04/05 02:14:53;;;;;;;12.90;3.10;;;10.60;99.90;;;9.44;100.00;100442.28;5001202;28;20057;-79
2024/04/05 02:17:19;;;;;;;13.10;3.35;;;10.60;99.90;;;9.44;100.00;100435.22;5017860;28;20037;-79
2024/04/05 02:19:45;;;;;;;12.15;3.45;;;10.60;99.90;;;9.44;100.00;100447.53;5015630;28;20041;-79
2024/04/05 02:22:11;;;;;;;12.55;3.58;;;10.60;99.90;;;9.43;100.00;100446.66;5017059;28;20025;-79
2024/04/05 02:24:37;;;;;;;13.45;3.35;;;10.60;99.90;;;9.43;100.00;100448.44;5032885;28;20611;-79
2024/04/05 02:27:03;;;;;;;16.90;3.35;;;10.60;99.90;;;9.37;100.00;100440.81;4999750;28;20110;-79
2024/04/05 02:29:35;;;;;;;15.18;3.60;;;10.60;99.90;;;9.39;100.00;100450.34;5019499;28;20037;-79
2024/04/05 02:32:00;;;;;;;16.70;3.42;;;10.60;99.90;;;9.39;100.00;100442.44;5006611;28;20037;-79
2024/04/05 02:34:26;;;;;;;14.82;3.58;;;10.60;99.90;;;9.41;100.00;100445.03;4999153;28;20024;-79
2024/04/05 02:36:53;;;;;;;16.58;3.90;;;10.60;99.90;;;9.37;100.00;100446.09;4999341;28;20036;-79
2024/04/05 02:39:19;;;;;;;20.83;3.60;;;10.60;99.90;;;9.33;100.00;100455.91;5016490;28;20036;-79
2024/04/05 02:41:49;;;;;;;18.05;3.67;;;10.50;99.90;;;9.28;100.00;100444.72;5017302;28;20495;-79
2024/04/05 02:44:15;;;;;;;16.13;3.08;;;10.50;99.90;;;9.19;100.00;100459.13;5013736;28;20085;-79
2024/04/05 02:46:42;;;;;;;16.77;3.88;;;10.50;99.90;;;9.17;100.00;100450.47;4998721;28;20041;-79
2024/04/05 02:49:08;;;;;;;23.67;4.07;;;10.50;99.90;;;9.17;100.00;100462.75;4999996;28;20033;-79
2024/04/05 02:51:35;;;;;;;18.77;3.42;;;10.70;99.90;;;9.15;100.00;100467.22;5014197;28;20029;-79
2024/04/05 02:54:08;;;;;;;20.42;3.42;;;10.40;99.90;;;9.18;100.00;100475.84;5014112;28;20009;-79
2024/04/05 02:56:34;;;;;;;19.02;3.80;;;10.50;99.90;;;9.22;100.00;100476.53;4999909;28;20029;-79
2024/04/05 02:59:01;;;;;;;17.60;3.80;;;10.50;99.90;;;9.22;100.00;100477.41;5014254;28;20394;-79
2024/04/05 03:01:27;;;;;;;12.77;3.65;;;10.40;99.90;;;9.21;100.00;100478.31;5014326;28;20373;-79
2024/04/05 03:03:58;;;;;;;11.77;3.40;;;10.40;99.90;;;9.23;100.00;100476.47;5015266;28;20104;-79
2024/04/05 03:06:24;;;;;;;14.68;3.83;;;10.50;99.90;;;9.24;100.00;100472.06;4999836;28;20036;-79
2024/04/05 03:08:49;;;;;;;18.17;3.58;;;10.50;99.90;;;9.26;100.00;100480.72;5015701;28;20055;-79
2024/04/05 03:11:15;;;;;;;13.27;3.33;;;10.50;99.90;;;9.29;100.00;100477.97;5031738;28;20033;-79
2024/04/05 03:13:43;;;;;;;23.20;3.88;;;10.50;99.90;;;9.31;100.00;100470.88;5033068;28;20064;-78
2024/04/05 03:16:08;;;;;;;15.00;3.05;;;10.50;99.90;;;9.31;100.00;100472.63;5015129;28;20029;-78
2024/04/05 03:18:37;;;;;;;22.50;3.78;;;10.50;99.90;;;9.26;100.00;100474.63;4998425;28;20041;-79
2024/04/05 03:21:03;;;;;;;15.48;3.25;;;10.50;99.90;;;9.23;100.00;100480.88;5013389;28;20365;-79
2024/04/05 03:23:29;;;;;;;16.70;3.53;;;10.40;99.90;;;9.19;100.00;100480.16;5014369;28;20171;-79
2024/04/05 03:25:55;;;;;;;25.25;3.45;;;10.40;99.90;;;9.12;100.00;100483.97;5015374;28;20057;-78
2024/04/05 03:28:20;;;;;;;18.88;3.65;;;10.40;99.90;;;9.12;100.00;100491.88;5012886;28;20025;-78
2024/04/05 03:30:46;;;;;;;16.15;3.72;;;10.30;99.90;;;9.07;100.00;100485.97;4997741;28;20032;-79
2024/04/05 03:33:12;;;;;;;14.20;3.50;;;10.30;99.90;;;9.06;100.00;100494.75;5013002;28;20135;-79
2024/04/05 03:35:39;;;;;;;24.70;3.60;;;10.30;99.90;;;9.05;100.00;100490.44;5008151;28;20508;-79
2024/04/05 03:38:07;;;;;;;15.40;4.10;;;10.30;99.90;;;9.09;100.00;100488.50;4999452;28;20025;-79
2024/04/05 03:40:39;;;;;;;19.92;4.30;;;10.30;99.90;;;9.12;100.00;100494.50;4998248;28;20026;-79
2024/04/05 03:43:08;;;;;;;15.63;4.07;;;;;;;9.13;100.00;100490.94;5012870;28;20030;-79
2024/04/05 03:45:36;;;;;;;21.45;5.13;;;10.30;99.90;;;9.15;100.00;100489.09;5012852;28;20060;-79
2024/04/05 03:48:03;;;;;;;19.67;5.18;;;10.30;99.90;;;9.14;100.00;100495.28;5030531;28;20498;-79
2024/04/05 03:50:29;;;;;;;22.90;5.40;;;10.40;99.90;;;9.16;100.00;100495.22;5014264;28;20033;-79
2024/04/05 03:52:56;;;;;;;25.65;5.45;;;10.40;99.90;;;9.15;100.00;100496.97;5013816;28;20035;-79
2024/04/05 03:55:29;;;;;;;24.45;5.78;;;10.40;99.90;;;9.18;100.00;100503.88;4996403;28;20541;-79
2024/04/05 03:57:55;;;;;;;28.40;5.53;;;10.40;99.90;;;9.15;100.00;100504.84;5013366;28;20022;-79
2024/04/05 04:00:21;;;;;;;28.27;5.70;;;10.40;99.90;;;9.15;100.00;100496.13;4996726;28;20083;-79
2024/04/05 04:02:54;;;;;;;19.50;4.97;;;10.40;99.90;;;9.13;100.00;100503.22;5012872;28;20447;-79
2024/04/05 04:05:21;;;;;;;20.95;4.80;;;10.30;99.90;;;9.13;100.00;100509.31;5012869;28;20514;-79
2024/04/05 04:07:47;;;;;;;19.00;4.40;;;10.30;99.90;;;9.11;100.00;100515.56;5013444;28;20052;-79
2024/04/05 04:10:14;;;;;;;22.20;4.72;;;10.30;99.90;;;9.10;100.00;100512.09;5014031;28;20033;-79
2024/04/05 04:12:39;;;;;;;20.00;4.45;;;10.30;99.90;;;9.09;100.00;100515.63;5013997;28;20030;-79
2024/04/05 04:15:11;;;;;;;22.38;5.28;;;10.30;99.90;;;9.11;100.00;100520.81;5009985;28;20029;-79
2024/04/05 04:17:38;;;;;;;32.40;5.32;;;10.30;99.90;;;9.13;100.00;100532.09;5007259;28;20108;-79
2024/04/05 04:20:05;;;;;;;30.63;5.22;;;10.40;99.90;;;9.14;100.00;100529.44;4997688;28;20043;-79
2024/04/05 04:22:38;;;;;;;24.67;5.05;;;10.40;99.90;;;9.17;100.00;100526.66;4994916;28;20087;-78
2024/04/05 04:25:05;;;;;;;20.15;4.53;;;10.40;99.90;;;9.17;100.00;100531.06;4997924;28;20039;-79
2024/04/05 04:27:31;;;;;;;20.02;4.70;;;10.40;99.90;;;9.21;100.00;100525.59;4998823;28;20045;-79
2024/04/05 04:29:58;;;;;;;31.60;5.55;;;10.40;99.90;;;9.23;100.00;100534.28;5012679;28;20495;-79
2024/04/05 04:32:24;;;;;;;20.10;4.40;;;10.40;99.90;;;9.26;100.00;100533.28;5004084;28;20025;-79
2024/04/05 04:34:58;;;;;;;31.83;5.50;;;10.40;99.90;;;9.23;100.00;100538.69;5013541;28;20531;-78
2024/04/05 04:37:24;;;;;;;26.48;5.90;;;10.40;99.90;;;9.24;100.00;100541.25;5012816;28;20034;-79
2024/04/05 04:39:50;;;;;;;22.90;5.60;;;10.50;99.90;;;9.26;100.00;100558.69;5013673;28;20116;-79
2024/04/05 04:42:17;;;;;;;31.95;6.45;;;10.50;99.90;;;9.26;100.00;100553.44;5005806;28;20498;-79
2024/04/05 04:44:45;;;;;;;30.63;5.40;;;10.50;99.90;;;9.27;100.00;100561.28;5011878;28;20037;-79
2024/04/05 04:47:11;;;;;;;25.52;4.90;;;10.50;99.90;;;9.30;100.00;100565.53;4997590;28;20037;-78
2024/04/05 04:49:37;;;;;;;32.92;6.07;;;10.50;99.90;;;9.30;100.00;100555.88;4996637;28;20627;-79
2024/04/05 04:52:04;;;;;;;24.33;5.10;;;10.50;99.90;;;9.33;100.00;100555.75;5013588;28;20116;-78
2024/04/05 04:54:30;;;;;;;30.90;5.50;;;10.50;99.90;;;9.35;100.00;100564.41;4997424;28;20042;-78
2024/04/05 04:56:55;;;;;;;26.70;5.25;;;10.50;99.90;;;9.39;100.00;100570.38;5013198;28;20547;-79
2024/04/05 04:59:28;;;;;;;26.77;4.53;;;;;;;9.36;100.00;100571.38;4997393;28;20017;-78
2024/04/05 05:01:57;;;;;;;32.13;4.95;;;10.60;99.90;;;9.37;100.00;100572.22;5030199;28;20208;-79
2024/04/05 05:04:23;;;;;;;29.27;4.70;;;10.60;99.90;;;9.40;100.00;100574.72;5015794;28;20049;-79
2024/04/05 05:06:50;;;;;;;28.77;4.50;;;10.60;99.90;;;9.37;100.00;100587.97;5014335;28;20040;-79
2024/04/05 05:09:19;;;;;;;24.80;4.38;;;10.60;99.90;;;9.41;100.00;100582.50;4998695;28;20045;-79
2024/04/05 05:11:46;;;;;;;23.13;3.90;;;10.60;99.90;;;9.41;100.00;100600.06;4999904;28;20036;-79
2024/04/05 05:14:12;;;;;;;33.83;4.57;;;10.60;99.90;;;9.40;100.00;100599.22;4999496;28;20057;-79
2024/04/05 05:16:38;;;;;;;29.48;4.80;;;10.60;99.90;;;9.41;100.00;100593.03;5015566;28;20032;-78
2024/04/05 05:19:13;;;;;;;22.20;4.53;;;10.60;99.90;;;9.41;100.00;100600.06;4998307;28;20029;-79
2024/04/05 05:21:39;;;;;;;26.58;4.53;;;10.60;99.90;;;9.40;100.00;100604.47;5016553;28;20029;-78
2024/04/05 05:24:05;;;;;;;35.33;5.07;;;10.60;99.90;;;9.45;100.00;100599.03;4997482;28;20148;-79
2024/04/05 05:26:32;;;;;;;37.28;4.88;;;10.70;99.90;;;9.50;100.00;100598.81;4995174;28;20044;-78
2024/04/05 05:29:00;;;;;;;29.48;4.00;;;10.70;99.90;;;9.53;100.00;100602.16;5001087;28;20125;-79
2024/04/05 05:31:28;;;;;;;26.52;3.97;;;10.70;99.90;;;9.56;100.00;100609.91;5017404;28;20036;-79
2024/04/05 05:33:54;;;;;;;33.05;4.13;;;10.80;99.90;;;9.60;100.00;100602.75;5019248;28;20033;-79
2024/04/05 05:36:20;;;;;;;34.55;4.13;;;10.80;99.90;;;9.65;100.00;100609.53;5023493;28;20476;-79
2024/04/05 05:38:45;;;;;;;30.08;4.28;;;10.80;99.90;;;9.67;100.00;100600.69;5008830;28;20022;-79
2024/04/05 05:41:11;;;;;;;34.42;4.32;;;10.80;99.90;;;9.67;100.00;100609.44;5013806;28;20136;-79
2024/04/05 05:43:37;;;;;;;26.83;4.70;;;10.90;99.90;;;9.71;100.00;100605.75;4999359;28;20025;-79
2024/04/05 05:46:05;;;;;;;29.67;3.88;;;10.90;99.90;;;9.77;100.00;100605.47;5012424;28;20033;-79
2024/04/05 05:48:31;;;;;;;25.80;3.88;;;11.00;99.90;;;9.82;100.00;100605.25;4999892;28;20057;-78
2024/04/05 05:50:57;;;;;;;36.72;6.40;;;11.00;99.90;;;9.89;100.00;100611.94;5030981;28;20108;-79
2024/04/05 05:53:23;;;;;;;34.30;7.15;;;11.00;99.90;;;9.93;100.00;100608.25;5013893;28;20032;-78
2024/04/05 05:55:52;;;;;;;28.23;6.93;;;11.10;99.90;;;10.00;100.00;100614.94;4998364;28;20724;-78
2024/04/05 05:58:21;;;;;;;38.30;6.63;;;11.20;99.90;;;10.07;100.00;100610.25;5001201;28;20013;-79
2024/04/05 06:00:47;;;;;;;30.85;6.15;;;11.20;99.90;;;10.09;100.00;100613.69;5015565;28;20484;-79
2024/04/05 06:03:13;;;;;;;35.70;4.75;;;11.30;99.90;;;10.12;100.00;100616.16;5012436;28;20033;-78
2024/04/05 06:05:39;;;;;;;26.50;5.25;;;11.20;99.90;;;10.10;100.00;100618.00;5007843;28;20029;-79
2024/04/05 06:08:07;;;;;;;33.10;5.00;;;11.30;99.90;;;10.10;100.00;100617.16;5016783;28;20041;-79
2024/04/05 06:10:38;;;;;;;41.10;5.40;;;11.30;99.90;;;10.12;100.00;100624.03;5014907;28;20025;-79
2024/04/05 06:13:04;;;;;;;30.10;4.13;;;11.30;99.90;;;10.16;100.00;100624.75;5014633;28;20029;-79
2024/04/05 06:15:30;;;;;;;25.05;3.97;;;11.30;99.90;;;10.21;100.00;100628.03;4999229;28;20109;-78
2024/04/05 06:17:56;;;;;;;39.20;5.05;;;11.40;99.90;;;10.30;100.00;100624.13;5015687;28;20179;-78
2024/04/05 06:20:22;;;;;;;32.60;4.25;;;11.50;99.90;;;10.37;100.00;100622.94;5013722;28;20095;-78
2024/04/05 06:22:48;;;;;;;34.55;5.00;;;11.50;99.90;;;10.43;100.00;100623.50;4998700;28;20026;-79
2024/04/05 06:25:19;;;;;;;29.35;4.15;;;11.60;99.90;;;10.48;100.00;100619.81;5015503;28;20038;-78
2024/04/05 06:27:45;;;;;;;26.75;4.28;;;11.60;99.90;;;10.51;100.00;100625.75;5012663;28;20384;-79
2024/04/05 06:30:11;;;;;;;27.55;3.70;;;11.70;99.90;;;10.58;100.00;100626.31;4999448;28;20044;-78
2024/04/05 06:32:38;;;;;;;28.50;5.55;;;11.80;99.90;;;10.66;100.00;100632.06;4997832;28;20116;-79
2024/04/05 06:35:05;;;;;;;38.85;5.65;;;11.80;99.90;;;10.74;100.00;100631.72;4997448;28;20034;-79
2024/04/05 06:37:38;;;;;;;39.72;4.28;;;11.90;99.90;;;10.80;100.00;100640.16;5012119;28;20029;-78
2024/04/05 06:40:05;;;;;;;28.70;3.42;;;12.00;99.90;;;10.86;100.00;100641.63;5014577;28;20022;-79
2024/04/05 06:42:31;;;;;;;30.05;4.55;;;12.00;99.90;;;10.85;100.00;100651.31;5007181;28;20033;-78
2024/04/05 06:44:59;;;;;;;28.77;4.28;;;12.00;99.90;;;10.92;100.00;100651.00;5005460;28;20098;-79
2024/04/05 06:47:27;;;;;;;32.70;3.72;;;12.10;99.90;;;10.96;100.00;100647.31;5013169;28;20543;-78
2024/04/05 06:49:53;;;;;;;25.00;4.05;;;12.10;99.90;;;10.99;100.00;100652.41;5013521;28;20041;-79
2024/04/05 06:52:19;;;;;;;33.22;4.50;;;12.10;99.90;;;11.06;100.00;100646.78;4997160;28;20034;-79
2024/04/05 06:54:46;;;;;;;33.38;3.60;;;12.20;99.90;;;11.08;100.00;100651.97;5013878;28;20039;-79
2024/04/05 06:57:12;;;;;;;36.38;4.82;;;12.20;99.90;;;11.09;100.00;100659.78;5012365;28;20024;-78
2024/04/05 06:59:40;;;;;;;29.60;4.90;;;12.30;99.90;;;11.10;100.00;100663.28;5016690;28;20022;-79
2024/04/05 07:02:07;;;;;;;29.80;4.32;;;12.30;99.90;;;11.18;100.00;100663.75;4996138;28;20018;-79
2024/04/05 07:04:33;;;;;;;33.85;4.40;;;12.30;99.90;;;11.22;100.00;100670.56;5012366;28;20639;-78
2024/04/05 07:06:59;;;;;;;29.70;4.68;;;12.40;99.90;;;11.27;100.00;100675.59;5014426;28;20103;-79
2024/04/05 07:09:28;;;;;;;28.55;5.05;;;12.40;99.90;;;11.24;100.00;100678.41;5014778;28;20502;-79
2024/04/05 07:12:01;;;;;;;27.40;3.72;;;12.30;99.90;;;11.18;100.00;100674.28;4997612;28;20025;-78
2024/04/05 07:14:29;;;;;;;27.40;4.07;;;12.40;99.90;;;11.25;100.00;100667.78;5014957;28;20033;-79
2024/04/05 07:16:55;;;;;;;26.30;4.07;;;12.40;99.90;;;11.21;100.00;100674.16;4997185;28;20022;-79
2024/04/05 07:19:21;;;;;;;33.55;4.63;;;12.40;99.90;;;11.28;100.00;100672.91;4998129;28;20025;-79
2024/04/05 07:21:50;;;;;;;30.13;4.90;;;12.40;99.90;;;11.34;100.00;100671.75;5013773;28;20403;-78
2024/04/05 07:24:16;;;;;;;27.13;4.10;;;12.50;99.90;;;11.40;100.00;100679.34;5016673;28;20577;-79
2024/04/05 07:26:45;;;;;;;36.95;5.13;;;12.50;99.90;;;11.42;100.00;100677.47;5014462;28;20036;-78
2024/04/05 07:29:11;;;;;;;30.10;4.38;;;12.60;99.90;;;11.47;100.00;100683.38;4997011;28;20053;-78
2024/04/05 07:31:39;;;;;;;28.02;4.05;;;12.60;99.90;;;11.46;100.00;100672.88;4998008;28;20154;-79
2024/04/05 07:34:07;;;;;;;26.58;3.65;;;12.60;99.90;;;11.45;100.00;100673.84;4997556;28;20442;-79
2024/04/05 07:36:33;;;;;;;38.75;4.25;;;12.60;99.90;;;11.57;100.00;100677.63;5010616;28;20033;-79
2024/04/05 07:39:00;;;;;;;35.97;3.78;;;12.70;99.90;;;11.60;100.00;100680.13;5005631;28;20567;-79
2024/04/05 07:41:25;;;;;;;33.80;3.95;;;12.80;99.90;;;11.63;100.00;100688.69;5012838;28;20080;-79
2024/04/05 07:43:51;;;;;;;27.30;4.72;;;12.80;99.90;;;11.73;100.00;100680.31;5030680;28;20527;-78
2024/04/05 07:46:17;;;;;;;32.28;3.90;;;12.90;99.90;;;11.79;100.00;100687.91;4996014;28;20052;-79
2024/04/05 07:48:43;;;;;;;26.52;3.42;;;12.90;99.90;;;11.81;100.00;100675.47;4998006;28;20108;-79
2024/04/05 07:51:10;;;;;;;34.83;4.90;;;13.00;99.90;;;11.89;100.00;100673.34;4995911;28;20041;-78
2024/04/05 07:53:36;;;;;;;30.73;4.32;;;13.10;99.90;;;11.95;100.00;100680.94;5013359;28;20406;-78
2024/04/05 07:56:05;;;;;;;32.00;4.60;;;13.20;99.90;;;12.11;100.00;100686.22;5011507;28;20091;-79
2024/04/05 07:58:31;;;;;;;38.75;5.45;;;13.30;99.90;;;12.37;100.00;100698.00;4997457;28;20025;-79
2024/04/05 08:01:03;;;;;;;27.20;3.78;;;13.50;99.90;;;12.55;99.04;100701.47;5015288;28;20052;-79
2024/04/05 08:03:29;;;;;;;32.90;4.30;;;13.70;99.90;;;12.79;97.64;100703.69;5011453;28;20295;-78
2024/04/05 08:05:55;;;;;;;32.15;5.00;;;13.90;99.90;;;12.88;95.65;100706.63;5019953;28;20064;-79
2024/04/05 08:08:20;;;;;;;32.58;4.45;;;13.90;99.90;;;12.92;94.28;100702.88;5010737;28;20025;-79
2024/04/05 08:10:46;;;;;;;23.13;4.20;;;14.00;99.90;;;13.08;94.18;100699.38;4998965;28;20476;-79
2024/04/05 08:13:12;;;;;;;32.13;4.57;;;14.20;99.90;;;13.30;94.24;100717.50;4996372;28;20033;-79
2024/04/05 08:15:41;;;;;;;35.30;4.93;;;14.30;99.90;;;13.23;91.71;100714.34;4997048;28;20407;-79
2024/04/05 08:18:06;;;;;;;25.10;4.30;;;14.50;99.90;;;13.42;91.28;100711.50;5014172;28;20256;-79
2024/04/05 08:20:32;;;;;;;36.58;3.95;;;14.50;99.90;;;13.57;91.06;100709.75;5002927;28;20052;-78
2024/04/05 08:22:58;;;;;;;26.90;4.05;;;14.60;99.90;;;13.58;88.69;100714.09;4996354;28;20607;-80
2024/04/05 08:25:24;;;;;;;34.10;5.72;;;14.70;99.90;;;13.57;88.01;100722.13;5014240;28;20171;-79
2024/04/05 08:27:49;;;;;;;35.85;4.80;;;14.70;99.90;;;13.66;88.04;100721.59;5011445;28;20051;-79
2024/04/05 08:30:18;;;;;;;40.65;4.68;;;14.80;99.90;;;13.83;88.33;100707.34;5028083;28;20045;-79
2024/04/05 08:32:46;;;;;;;37.42;5.45;;;15.00;99.90;;;14.05;88.74;100710.38;5010119;28;20021;-79
2024/04/05 08:35:16;;;;;;;30.17;4.82;;;15.10;99.90;;;14.23;86.62;100713.69;4999399;28;20037;-79
2024/04/05 08:37:43;;;;;;;32.22;5.60;;;15.40;99.90;;;14.57;85.39;100712.44;5012171;28;20022;-78
2024/04/05 08:40:10;;;;;;;31.88;4.22;;;15.60;99.90;;;14.79;84.10;100715.53;4997206;28;20063;-79
2024/04/05 08:42:42;;;;;;;25.85;4.82;;;15.80;99.90;;;14.93;83.05;100726.94;5004532;28;20130;-80
2024/04/05 08:45:11;;;;;;;37.65;5.35;;;15.90;99.90;;;14.97;81.88;100727.59;4998295;28;20504;-79
2024/04/05 08:47:41;;;;;;;31.45;5.20;;;16.10;99.90;;;15.16;81.32;100724.59;5005449;28;20691;-79
2024/04/05 08:50:14;;;;;;;34.60;5.70;;;16.30;99.90;;;15.44;81.77;100725.41;4995803;28;20132;-79
2024/04/05 08:52:40;;;;;;;27.48;4.35;;;16.40;99.90;;;15.53;79.29;100730.97;5012901;28;20064;-80
2024/04/05 08:55:09;;;;;;;34.38;4.95;;;16.50;99.90;;;15.55;78.40;100737.03;4996520;28;20659;-80
2024/04/05 08:57:39;;;;;;;34.80;5.07;;;16.50;99.90;;;15.34;78.15;100749.06;5010363;28;20515;-80
2024/04/05 09:00:07;;;;;;;38.40;5.70;;;16.50;99.90;;;15.32;78.57;100740.34;5021867;28;20026;-79
2024/04/05 09:02:41;;;;;;;33.80;4.43;;;16.50;99.90;;;15.36;78.78;100742.69;5016411;28;20025;-79
2024/04/05 09:05:19;;;;;;;38.72;5.05;;;16.50;99.90;;;15.44;78.53;100743.97;5002681;28;20053;-84
2024/04/05 09:08:20;;;;;;;40.03;5.03;;;16.50;99.90;;;15.35;77.54;100742.78;4969965;28;20078;-85
2024/04/05 09:10:59;;;;;;;36.03;5.63;;;;;;;15.12;78.06;100747.81;4969067;28;20512;-84
2024/04/05 09:13:25;;;;;;;31.45;4.85;;;;;;;15.18;78.63;100741.25;4976000;28;20041;-83
2024/04/05 09:15:51;;;;;;;30.25;4.78;;;16.30;99.90;;;15.12;78.90;100744.31;4971184;28;20170;-85
2024/04/05 09:18:42;;;;;;;33.03;5.53;;;17.90;99.90;;;15.16;78.22;100743.16;4977403;28;20046;-85
2024/04/05 09:21:11;;;;;;;31.73;4.35;;;16.20;99.90;;;15.09;78.81;100747.16;4984708;28;20038;-83
2024/04/05 09:24:07;;;;;;;30.90;5.07;;;16.20;99.90;;;15.04;78.01;100754.56;4927592;29;20062;-86
2024/04/05 09:27:20;;;;;;;25.73;3.83;;;16.20;99.90;;;15.05;77.54;100753.59;4876646;29;20045;-84
2024/04/05 09:30:12;;;;;;;32.85;4.28;;;16.20;99.90;;;15.17;78.13;100764.28;4846119;29;20048;-81
2024/04/05 09:32:50;;;;;;;35.30;5.22;;;16.30;99.90;;;15.34;78.96;100759.69;4859794;29;20045;-82
2024/04/05 09:35:20;;;;;;;22.63;3.80;;;16.30;99.90;;;15.33;77.42;100776.53;4874363;29;20206;-82
2024/04/05 09:37:55;;;;;;;31.17;5.47;;;16.40;99.90;;;15.35;77.59;100772.81;4877727;29;20037;-82
2024/04/05 09:40:30;;;;;;;29.70;4.75;;;16.40;99.90;;;15.40;77.56;100775.19;4911071;29;20068;-82
2024/04/05 09:43:03;;;;;;;27.52;4.85;;;16.40;99.90;;;15.39;77.70;100774.31;4895035;29;20104;-82
2024/04/05 09:45:38;;;;;;;27.27;3.90;;;16.40;99.90;;;15.31;76.95;100774.00;4893254;29;20044;-81
2024/04/05 09:48:08;;;;;;;28.00;4.45;;;16.40;99.90;;;15.38;76.35;100775.28;4910724;29;20053;-81
2024/04/05 09:50:39;;;;;;;29.25;4.65;;;16.50;99.90;;;15.50;76.62;100773.59;4911171;29;20041;-81
2024/04/05 09:53:05;;;;;;;30.05;4.45;;;16.60;99.90;;;15.57;75.85;100764.31;4895664;29;20069;-82
2024/04/05 09:55:38;;;;;;;36.92;4.93;;;16.60;99.90;;;15.64;75.82;100775.34;4895803;29;20049;-81
2024/04/05 09:58:07;;;;;;;31.10;4.40;;;16.70;99.90;;;15.64;76.63;100762.09;4931020;29;20032;-81
2024/04/05 10:00:38;;;;;;;25.73;4.43;;;16.60;99.90;;;15.46;74.90;100763.31;4915380;28;20062;-81
2024/04/05 10:03:11;;;;;;;29.00;3.55;;;16.50;99.90;;;15.17;75.25;100752.81;4970451;28;20033;-81
2024/04/05 10:05:37;;;;;;;22.13;4.38;;;16.30;99.90;;;15.05;76.58;100751.81;5017482;28;20037;-81
2024/04/05 10:08:16;;;;;;;25.35;3.92;;;16.30;99.90;;;15.08;77.60;100743.66;5000325;28;20111;-79
2024/04/05 10:10:45;;;;;;;40.03;5.95;;;16.20;99.90;;;15.05;77.02;100753.59;5014421;28;20040;-82
2024/04/05 10:13:25;;;;;;;35.97;5.03;;;16.10;99.90;;;14.87;77.34;100758.31;5018330;28;20056;-81